Decoded Metar for KMIV (MILLVILLE in NJ, USA) (IATA:MIV) | Meteo·Mobile Aviation Weather
aviador You're here:

KMIV Decoded Metar

MILLVILLE in NJ, USA
Report Time2019-05-26 15:54:00
UTC Time2019-05-26 16:58:39
Flight Rules vfr VFR
Wind280° at 10 kt
W.Decomp.*RWY 28: 9.8 kt HW 1.9 kt RCW
RWY 32: 8.7 kt HW 4.8 kt LCW
Visibility9999 m
Phenomena:N/A
Clouds:N/A
Expected CloudBase > 3,200 ft AGL from Temp-Dew spread
CeilingNone
Temp28°C (ISA +13)
Dew Point20°C (62% RH)
Heat Index29.7°C
QNH1016 hPa
Density Alt1,798 ft
Elevation75 ft
Report Wrong Elevation
Raw Report
KMIV 261554Z AUTO 28010KT 10SM CLR 28/20 A2999 RMK AO2 SLP153
T02780200=

Extra information for KMIV:More info

Metar Taf Metar & Taf Last 4 Metars F.Rules Stats Wind Profile Meteogram Temp Stats Airport Information Weather charts Add Link Nearby VenuesMetar ALERT Operation Metar Decoded Social comments

AIRNAV info for KMIV